Tadoule Lake Airport
CYBQ : now visible

Airfield :











YOU CAN JOIN US ON...

 
LOGIN :

Register | Disclaimer

   EN    FR    IT 

 









Legend :    VFR   Marginal VFR   IFR   Intensive IFR   Very Intensive IFR
Visi :
Ceiling :
>= 8 km
>= 3000ft
5 to 8 km
1000 to 3000 ft
1500m to 5 km
500 to 1000 ft
800 to 1500m
200 to 500 ft
< 800m
< 200 ft
Symbols :   Thunderstorms  Fog  Heavy snow  Heavy precipitations  Wind > 20 kt






- Airport Elevation : 923 ft
- IATA code : XTL


CYBQ - Tadoule Lake

CURRENT METAR :
  • 142100Z AUTO 25003KT 9SM CLR M26/M30 A2982 RMK SLP142

EXPIRED METARs :
  • 142000Z AUTO 28004KT 250V320 9SM CLR M26/M29 A2984 RMK SLP148
  • 141900Z AUTO 29004KT 250V310 9SM CLR M26/M30 A2984 RMK SLP150
  • 141823Z AUTO 27003KT 210V300 9SM SCT005 M27/M30 A2985 RMK SLP153

TAF N/A



MET'MAP, your aeronautical weather chart ! - Copyright ORBIFLY December 2007 - Disclaimer

ORBIFLY MET'MAP TEAM :

Programming & Development : Alexandra Zaïnal
Concept & original design : Baudouin d'Aumeries
Assistance for programming : Marc-Olivier Méhu
Technical & hardware support : Manuel Goepfert

Contact : metmap@orbifly.com




SOURCES & CREDITS :

   NOAA       Earth
Advisory